createdAt,value
2019-03-06T00:00:30.925Z,99759.00
2019-03-06T00:02:56.977Z,99763.35
2019-03-06T00:05:22.973Z,99760.30
2019-03-06T00:07:49.260Z,99758.38
2019-03-06T00:10:22.161Z,99753.61
2019-03-06T00:12:48.052Z,99754.80
2019-03-06T00:15:14.283Z,99759.19
2019-03-06T00:17:40.439Z,99757.23
2019-03-06T00:20:06.453Z,99762.88
2019-03-06T00:22:32.484Z,99762.28
2019-03-06T00:24:58.409Z,99772.49
2019-03-06T00:27:24.401Z,99775.28
2019-03-06T00:29:50.511Z,99769.14
2019-03-06T00:32:16.440Z,99769.86
2019-03-06T00:34:42.364Z,99770.92
2019-03-06T00:37:08.561Z,99771.55
2019-03-06T00:39:36.490Z,99775.95
2019-03-06T00:42:02.480Z,99776.09
2019-03-06T00:44:28.438Z,99778.81
2019-03-06T00:46:54.332Z,99779.06
2019-03-06T00:49:20.333Z,99790.83
2019-03-06T00:51:46.359Z,99790.58
2019-03-06T00:54:12.287Z,99794.09
2019-03-06T00:56:38.460Z,99793.13
2019-03-06T00:59:04.314Z,99798.24
2019-03-06T01:01:30.225Z,99787.45
2019-03-06T01:03:56.224Z,99789.68
2019-03-06T01:06:22.176Z,99797.23
2019-03-06T01:08:48.258Z,99799.78
2019-03-06T01:11:14.224Z,99796.20
2019-03-06T01:13:40.275Z,99805.63
2019-03-06T01:16:06.172Z,99805.75
2019-03-06T01:18:32.133Z,99805.00
2019-03-06T01:20:57.953Z,99801.60
2019-03-06T01:23:24.343Z,99802.08
2019-03-06T01:25:50.176Z,99801.69
2019-03-06T01:28:16.099Z,99793.55
2019-03-06T01:30:42.204Z,99795.46
2019-03-06T01:33:15.827Z,99796.34
2019-03-06T01:36:02.299Z,99789.91
2019-03-06T01:38:42.211Z,99795.67
2019-03-06T01:41:10.182Z,99795.95
2019-03-06T01:43:46.958Z,99789.58
2019-03-06T01:46:12.930Z,99789.08
2019-03-06T01:48:38.926Z,99789.94
2019-03-06T01:51:04.809Z,99794.04
2019-03-06T01:53:30.961Z,99782.63
2019-03-06T01:55:56.982Z,99778.38
2019-03-06T01:58:23.249Z,99779.65
2019-03-06T02:00:49.227Z,99781.70
2019-03-06T02:03:15.365Z,99785.71
2019-03-06T02:05:41.413Z,99776.59
2019-03-06T02:08:08.089Z,99770.91
2019-03-06T02:10:34.057Z,99774.27
2019-03-06T02:13:00.327Z,99771.69
2019-03-06T02:15:26.319Z,99770.36
2019-03-06T02:17:52.375Z,99769.05
2019-03-06T02:20:18.355Z,99761.64
2019-03-06T02:22:44.764Z,99757.83
2019-03-06T02:25:11.033Z,99757.42
2019-03-06T02:27:36.964Z,99761.05
2019-03-06T02:30:09.656Z,99761.50
2019-03-06T02:32:35.641Z,99759.00
2019-03-06T02:35:01.691Z,99756.55
2019-03-06T02:37:27.640Z,99757.49
2019-03-06T02:39:53.502Z,99759.18
2019-03-06T02:42:19.343Z,99749.65
2019-03-06T02:44:45.320Z,99759.56
2019-03-06T02:47:11.156Z,99764.14
2019-03-06T02:49:37.152Z,99760.55
2019-03-06T02:52:03.234Z,99763.28
2019-03-06T02:54:29.075Z,99766.81
2019-03-06T02:56:55.006Z,99763.71
2019-03-06T02:59:22.888Z,99764.11
2019-03-06T03:01:50.744Z,99719.04
2019-03-06T03:04:18.611Z,99761.56
2019-03-06T03:06:49.079Z,99748.02
2019-03-06T03:09:16.825Z,99749.41
2019-03-06T03:11:42.985Z,99775.38
2019-03-06T03:14:09.125Z,99771.48
2019-03-06T03:16:34.959Z,99773.89
2019-03-06T03:19:01.181Z,99780.45
2019-03-06T03:21:27.201Z,99706.32
2019-03-06T03:23:53.237Z,99787.49
2019-03-06T03:26:19.201Z,99784.01
2019-03-06T03:28:45.119Z,99795.70
2019-03-06T03:31:11.144Z,99799.81
2019-03-06T03:33:40.490Z,99803.25
2019-03-06T03:36:06.405Z,99800.61
2019-03-06T03:38:32.282Z,99804.91
2019-03-06T03:40:58.138Z,99802.36
2019-03-06T03:43:24.119Z,99808.38
2019-03-06T03:45:50.353Z,99813.53
2019-03-06T03:48:16.216Z,99803.61
2019-03-06T03:50:42.127Z,99802.36
2019-03-06T03:53:07.976Z,99811.67
2019-03-06T03:55:33.814Z,99806.89
2019-03-06T03:57:59.702Z,99815.91
2019-03-06T04:00:25.641Z,99808.14
2019-03-06T04:02:51.843Z,99820.05
2019-03-06T04:05:17.898Z,99822.67
2019-03-06T04:07:43.944Z,99827.45
2019-03-06T04:10:13.008Z,99827.45
2019-03-06T04:12:39.116Z,99827.97
2019-03-06T04:15:08.248Z,99827.97
2019-03-06T04:17:34.323Z,99834.20
2019-03-06T04:20:00.517Z,99821.97
2019-03-06T04:22:26.689Z,99823.77
2019-03-06T04:24:52.546Z,99835.35
2019-03-06T04:27:18.427Z,99834.94
2019-03-06T04:29:44.464Z,99834.70
2019-03-06T04:32:10.508Z,99836.88
2019-03-06T04:34:36.696Z,99841.72
2019-03-06T04:37:02.751Z,99841.72
2019-03-06T04:39:28.697Z,99850.91
2019-03-06T04:41:54.528Z,99858.06
2019-03-06T04:44:20.630Z,99854.22
2019-03-06T04:46:46.483Z,99873.13
2019-03-06T04:49:12.349Z,99873.13
2019-03-06T04:51:38.295Z,99880.63
2019-03-06T04:54:04.287Z,99878.87
2019-03-06T04:56:30.147Z,99877.34
2019-03-06T04:58:55.986Z,99877.34
2019-03-06T05:01:21.838Z,99874.79
2019-03-06T05:03:47.931Z,99869.48
2019-03-06T05:06:14.072Z,99870.55
2019-03-06T05:08:40.047Z,99873.98
2019-03-06T05:11:06.058Z,99881.38
2019-03-06T05:13:31.911Z,99881.30
2019-03-06T05:15:57.732Z,99881.50
2019-03-06T05:18:28.568Z,99880.20
2019-03-06T05:20:54.628Z,99889.53
2019-03-06T05:23:20.702Z,99882.13
2019-03-06T05:25:46.594Z,99883.67
2019-03-06T05:28:12.442Z,99871.92
2019-03-06T05:30:38.261Z,99886.44
2019-03-06T05:33:13.461Z,99885.08
2019-03-06T05:36:04.020Z,99904.84
2019-03-06T05:38:36.773Z,99904.84
2019-03-06T05:41:02.807Z,99904.39
2019-03-06T05:43:28.983Z,99911.11
2019-03-06T05:45:55.148Z,99911.11
2019-03-06T05:48:21.253Z,99930.33
2019-03-06T05:50:47.306Z,99915.52
2019-03-06T05:53:13.540Z,99916.34
2019-03-06T05:55:39.399Z,99922.33
2019-03-06T05:58:05.626Z,99930.30
2019-03-06T06:00:31.506Z,99930.30
2019-03-06T06:02:57.453Z,99932.94
2019-03-06T06:05:23.403Z,99944.80
2019-03-06T06:07:49.393Z,99946.06
2019-03-06T06:10:15.533Z,99949.13
2019-03-06T06:12:41.568Z,99952.63
2019-03-06T06:15:09.449Z,99953.06
2019-03-06T06:17:35.308Z,99953.06
2019-03-06T06:20:01.408Z,99967.04
2019-03-06T06:22:31.951Z,99973.13
2019-03-06T06:24:57.873Z,99967.73
2019-03-06T06:27:23.952Z,99972.95
2019-03-06T06:29:52.766Z,99969.02
2019-03-06T06:32:18.723Z,99959.74
2019-03-06T06:34:44.638Z,99963.22
2019-03-06T06:37:13.886Z,99965.41
2019-03-06T06:39:39.857Z,99979.28
2019-03-06T06:42:06.077Z,99979.28
2019-03-06T06:44:32.055Z,99968.77
2019-03-06T06:46:58.073Z,99978.52
2019-03-06T06:49:24.027Z,99983.09
2019-03-06T06:52:05.240Z,99982.17
2019-03-06T06:54:38.231Z,99983.00
2019-03-06T06:57:23.097Z,99987.30
2019-03-06T07:00:07.867Z,99977.41
2019-03-06T07:03:14.528Z,99979.79
2019-03-06T07:05:45.216Z,99980.72
2019-03-06T07:08:15.924Z,99984.39
2019-03-06T07:10:52.718Z,99980.28
2019-03-06T07:13:20.697Z,99982.20
2019-03-06T07:15:54.416Z,99988.13
2019-03-06T07:18:22.269Z,99991.05
2019-03-06T07:20:55.846Z,99987.46
2019-03-06T07:23:26.719Z,99991.93
2019-03-06T07:26:09.518Z,99988.74
2019-03-06T07:28:43.370Z,99981.17
2019-03-06T07:31:17.452Z,99995.80
2019-03-06T07:33:47.952Z,99996.51
2019-03-06T07:36:32.490Z,99988.73
2019-03-06T07:38:58.484Z,99996.42
2019-03-06T07:41:28.946Z,99990.34
2019-03-06T07:44:14.991Z,99998.86
2019-03-06T07:46:48.541Z,100000.86
2019-03-06T07:49:25.202Z,100003.02
2019-03-06T07:52:05.048Z,100014.48
2019-03-06T07:54:32.785Z,100018.41
2019-03-06T07:57:12.646Z,100018.26
2019-03-06T07:59:38.691Z,100022.00
2019-03-06T08:02:23.844Z,100013.06
2019-03-06T08:04:52.114Z,100028.39
2019-03-06T08:07:17.947Z,100023.47
2019-03-06T08:09:43.991Z,100021.94
2019-03-06T08:12:28.581Z,100021.47
2019-03-06T08:15:13.177Z,100024.30
2019-03-06T08:17:44.116Z,100018.02
2019-03-06T08:20:28.468Z,100020.02
2019-03-06T08:23:02.204Z,100028.49
2019-03-06T08:25:42.418Z,100028.67
2019-03-06T08:28:08.413Z,100033.44
2019-03-06T08:30:39.192Z,100036.29
2019-03-06T08:33:05.161Z,100028.02
2019-03-06T08:35:31.899Z,100044.13
2019-03-06T08:37:57.740Z,100027.20
2019-03-06T08:40:27.742Z,100031.34
2019-03-06T08:42:53.697Z,100031.80
2019-03-06T08:45:24.287Z,100032.98
2019-03-06T08:48:07.416Z,100025.33
2019-03-06T08:50:35.237Z,100019.13
2019-03-06T08:53:14.957Z,100028.87
2019-03-06T08:55:42.939Z,100021.73
2019-03-06T08:58:27.862Z,100025.50
2019-03-06T09:00:58.549Z,100021.23
2019-03-06T09:03:29.919Z,100019.58
2019-03-06T09:06:00.490Z,100016.41
2019-03-06T09:08:34.069Z,100021.75
2019-03-06T09:11:03.059Z,100027.88
2019-03-06T09:13:37.514Z,100019.73
2019-03-06T09:16:05.290Z,100014.55
2019-03-06T09:18:33.119Z,100015.48
2019-03-06T09:21:00.975Z,100021.06
2019-03-06T09:23:31.468Z,100026.87
2019-03-06T09:26:05.358Z,99958.27
2019-03-06T09:28:33.489Z,100030.80
2019-03-06T09:31:04.310Z,100034.22
2019-03-06T09:33:32.138Z,100034.66
2019-03-06T09:36:06.401Z,100039.67
2019-03-06T09:38:42.973Z,100040.53
2019-03-06T09:41:10.986Z,100040.25
2019-03-06T09:43:44.553Z,100037.97
2019-03-06T09:46:21.183Z,100043.45
2019-03-06T09:49:11.153Z,100036.63
2019-03-06T09:51:36.975Z,100041.95
2019-03-06T09:54:11.607Z,100036.28
2019-03-06T09:56:39.533Z,100050.92
2019-03-06T09:59:07.507Z,100033.37
2019-03-06T10:01:40.060Z,100029.98
2019-03-06T10:04:19.763Z,100035.09
2019-03-06T10:06:47.928Z,100033.76
2019-03-06T10:09:31.982Z,100041.08
2019-03-06T10:12:09.839Z,100033.28
2019-03-06T10:14:46.644Z,100038.73
2019-03-06T10:17:31.022Z,100026.41
2019-03-06T10:20:01.528Z,100027.44
2019-03-06T10:22:27.372Z,100027.53
2019-03-06T10:24:53.403Z,100026.20
2019-03-06T10:27:19.445Z,100021.11
2019-03-06T10:29:45.494Z,100022.16
2019-03-06T10:32:11.624Z,100030.27
2019-03-06T10:34:37.606Z,100031.40
2019-03-06T10:39:29.404Z,100035.03
2019-03-06T10:41:55.303Z,100034.00
2019-03-06T10:44:28.770Z,100038.38
2019-03-06T10:46:49.111Z,100037.31
2019-03-06T10:49:15.108Z,100040.16
2019-03-06T10:51:41.078Z,100037.17
2019-03-06T10:54:07.110Z,100040.32
2019-03-06T10:56:33.289Z,99994.00
2019-03-06T10:58:59.826Z,100028.71
2019-03-06T11:01:26.089Z,100033.00
2019-03-06T11:04:05.868Z,100030.28
2019-03-06T11:06:32.013Z,100036.14
2019-03-06T11:08:57.986Z,100040.22
2019-03-06T11:11:24.062Z,100034.32
2019-03-06T11:13:50.312Z,100030.72
2019-03-06T11:16:17.925Z,100031.12
2019-03-06T11:18:44.294Z,100034.16
2019-03-06T11:21:10.396Z,100038.09
2019-03-06T11:23:36.341Z,100034.24
2019-03-06T11:26:05.273Z,100036.53
2019-03-06T11:28:31.458Z,100031.44
2019-03-06T11:30:58.824Z,100034.73
2019-03-06T11:33:25.383Z,100023.05
2019-03-06T11:35:55.401Z,100034.28
2019-03-06T11:38:21.820Z,100032.52
2019-03-06T11:40:47.866Z,100032.75
2019-03-06T11:43:13.952Z,100023.67
2019-03-06T11:45:40.613Z,100013.48
2019-03-06T11:48:07.362Z,100003.03
2019-03-06T11:50:40.636Z,100001.56
2019-03-06T11:53:01.312Z,99994.09
2019-03-06T11:55:27.812Z,99998.52
2019-03-06T11:57:53.915Z,100002.05
2019-03-06T12:00:29.599Z,99995.92
2019-03-06T12:02:55.473Z,99993.87
2019-03-06T12:05:22.306Z,99991.05
2019-03-06T12:07:48.610Z,100003.98
2019-03-06T12:10:14.946Z,100002.11
2019-03-06T12:12:40.897Z,100005.95
2019-03-06T12:15:09.453Z,100003.52
2019-03-06T12:17:35.588Z,100007.94
2019-03-06T12:20:08.210Z,99988.53
2019-03-06T12:22:29.574Z,99981.97
2019-03-06T12:24:55.552Z,99973.92
2019-03-06T12:27:21.493Z,99975.70
2019-03-06T12:29:47.527Z,99971.22
2019-03-06T12:32:13.549Z,99978.88
2019-03-06T12:34:39.579Z,99980.55
2019-03-06T12:37:05.624Z,99959.06
2019-03-06T12:39:31.618Z,99964.97
2019-03-06T12:41:58.917Z,99964.31
2019-03-06T12:44:25.035Z,99962.34
2019-03-06T12:46:51.017Z,99965.52
2019-03-06T12:49:17.130Z,99966.28
2019-03-06T12:51:43.066Z,99966.35
2019-03-06T12:54:09.126Z,99969.73
2019-03-06T12:56:35.314Z,99957.30
2019-03-06T12:59:01.254Z,99943.05
2019-03-06T13:01:27.208Z,99940.98
2019-03-06T13:03:53.181Z,99943.27
2019-03-06T13:06:24.504Z,99938.21
2019-03-06T13:08:50.779Z,99931.05
2019-03-06T13:11:15.600Z,99937.06
2019-03-06T13:13:41.548Z,99927.40
2019-03-06T13:16:07.716Z,99927.44
2019-03-06T13:18:33.651Z,99907.52
2019-03-06T13:20:59.628Z,99900.34
2019-03-06T13:23:25.741Z,99900.34
2019-03-06T13:25:51.874Z,99895.42
2019-03-06T13:28:17.959Z,99880.95
2019-03-06T13:30:43.949Z,99876.14
2019-03-06T13:33:13.699Z,99872.73
2019-03-06T13:35:40.295Z,99868.99
2019-03-06T13:38:06.362Z,99866.56
2019-03-06T13:40:32.404Z,99858.28
2019-03-06T13:42:58.636Z,99861.92
2019-03-06T13:45:24.680Z,99856.78
2019-03-06T13:47:51.142Z,99852.73
2019-03-06T13:50:17.265Z,99849.88
2019-03-06T13:52:43.207Z,99841.45
2019-03-06T13:55:10.720Z,99842.63
2019-03-06T13:57:36.653Z,99848.06
2019-03-06T14:00:18.000Z,99836.02
2019-03-06T14:02:45.878Z,99842.28
2019-03-06T14:05:13.245Z,99838.42
2019-03-06T14:07:39.236Z,99839.95
2019-03-06T14:10:07.490Z,99849.80
2019-03-06T14:12:33.550Z,99844.22
2019-03-06T14:14:59.578Z,99847.53
2019-03-06T14:17:25.726Z,99846.14
2019-03-06T14:19:51.887Z,99844.36
2019-03-06T14:22:18.970Z,99844.56
2019-03-06T14:24:44.991Z,99844.56
2019-03-06T14:27:11.343Z,99857.02
2019-03-06T14:29:37.383Z,99855.28
2019-03-06T14:32:03.594Z,99848.55
2019-03-06T14:34:29.434Z,99844.91
2019-03-06T14:36:56.008Z,99847.75
2019-03-06T14:39:24.594Z,99844.38
2019-03-06T14:41:50.760Z,99853.33
2019-03-06T14:44:16.853Z,99839.72
2019-03-06T14:46:46.652Z,99845.94
2019-03-06T14:49:12.722Z,99844.55
2019-03-06T14:51:38.575Z,99850.14
2019-03-06T14:54:05.624Z,99843.77
2019-03-06T14:56:32.075Z,99840.04
2019-03-06T14:58:57.925Z,99845.17
2019-03-06T15:01:23.860Z,99839.81
2019-03-06T15:03:49.786Z,99833.15
2019-03-06T15:06:15.732Z,99832.08
2019-03-06T15:08:41.798Z,99830.08
2019-03-06T15:11:07.815Z,99829.44
2019-03-06T15:13:34.299Z,99826.36
2019-03-06T15:16:00.333Z,99825.16
2019-03-06T15:18:26.366Z,99829.56
2019-03-06T15:20:52.233Z,99827.03
2019-03-06T15:23:18.272Z,99833.55
2019-03-06T15:25:44.219Z,99830.77
2019-03-06T15:28:10.306Z,99833.30
2019-03-06T15:30:36.518Z,99830.91
2019-03-06T15:33:02.696Z,99833.99
2019-03-06T15:35:28.734Z,99830.55
2019-03-06T15:37:54.897Z,99839.98
2019-03-06T15:40:24.138Z,99839.11
2019-03-06T15:42:50.555Z,99829.00
2019-03-06T15:45:18.093Z,99831.76
2019-03-06T15:47:44.355Z,99827.69
2019-03-06T15:50:12.544Z,99828.47
2019-03-06T15:52:39.186Z,99823.05
2019-03-06T15:55:08.871Z,99830.01
2019-03-06T15:57:34.890Z,99833.09
2019-03-06T16:00:01.272Z,99834.98
2019-03-06T16:02:27.451Z,99839.55
2019-03-06T16:04:53.513Z,99822.84
2019-03-06T16:07:19.777Z,99823.77
2019-03-06T16:09:45.867Z,99821.84
2019-03-06T16:12:12.400Z,99825.35
2019-03-06T16:14:39.047Z,99812.23
2019-03-06T16:17:05.159Z,99823.46
2019-03-06T16:19:31.035Z,99818.07
2019-03-06T16:21:56.904Z,99816.59
2019-03-06T16:24:23.260Z,99816.73
2019-03-06T16:26:49.186Z,99818.96
2019-03-06T16:29:15.393Z,99814.81
2019-03-06T16:31:41.810Z,99824.70
2019-03-06T16:34:07.885Z,99816.40
2019-03-06T16:36:34.024Z,99819.62
2019-03-06T16:39:00.105Z,99809.52
2019-03-06T16:41:26.416Z,99819.38
2019-03-06T16:43:52.861Z,99809.64
2019-03-06T16:46:19.247Z,99813.63
2019-03-06T16:48:45.684Z,99807.98
2019-03-06T16:51:11.875Z,99813.22
2019-03-06T16:53:38.150Z,99808.21
2019-03-06T16:56:04.340Z,99816.82
2019-03-06T16:58:30.582Z,99810.85
2019-03-06T17:00:59.757Z,99815.78
2019-03-06T17:03:25.749Z,99817.52
2019-03-06T17:05:52.024Z,99816.42
2019-03-06T17:08:18.204Z,99817.58
2019-03-06T17:10:44.300Z,99815.54
2019-03-06T17:13:10.368Z,99815.84
2019-03-06T17:15:36.477Z,99815.03
2019-03-06T17:18:03.030Z,99816.19
2019-03-06T17:20:35.767Z,99814.48
2019-03-06T17:23:02.168Z,99808.51
2019-03-06T17:25:28.513Z,99819.09
2019-03-06T17:27:54.582Z,99810.45
2019-03-06T17:30:26.472Z,99804.86
2019-03-06T17:33:02.802Z,99814.06
2019-03-06T17:35:30.686Z,99806.94
2019-03-06T17:37:56.851Z,99809.91
2019-03-06T17:40:23.191Z,99814.02
2019-03-06T17:42:49.334Z,99816.00
2019-03-06T17:45:15.872Z,99820.06
2019-03-06T17:47:41.901Z,99831.62
2019-03-06T17:50:11.862Z,99832.34
2019-03-06T17:52:37.803Z,99843.05
2019-03-06T17:55:05.415Z,99840.69
2019-03-06T17:57:31.307Z,99841.19
2019-03-06T17:59:57.281Z,99843.61
2019-03-06T18:02:26.395Z,99841.66
2019-03-06T18:04:52.415Z,99837.56
2019-03-06T18:07:18.437Z,99834.59
2019-03-06T18:09:44.646Z,99835.26
2019-03-06T18:12:10.624Z,99845.29
2019-03-06T18:14:36.672Z,99839.12
2019-03-06T18:17:02.730Z,99840.20
2019-03-06T18:19:28.735Z,99839.25
2019-03-06T18:21:54.841Z,99830.95
2019-03-06T18:24:20.810Z,99828.05
2019-03-06T18:26:46.893Z,99827.09
2019-03-06T18:29:13.278Z,99826.72
2019-03-06T18:31:39.246Z,99829.91
2019-03-06T18:34:05.338Z,99825.95
2019-03-06T18:36:31.542Z,99811.86
2019-03-06T18:38:57.380Z,99816.20
2019-03-06T18:41:23.370Z,99814.05
2019-03-06T18:43:49.379Z,99813.07
2019-03-06T18:46:15.362Z,99807.88
2019-03-06T18:48:41.234Z,99796.27
2019-03-06T18:51:11.103Z,99790.81
2019-03-06T18:53:37.214Z,99787.53
2019-03-06T18:56:03.335Z,99795.11
2019-03-06T18:58:29.359Z,99790.03
2019-03-06T19:00:55.416Z,99786.24
2019-03-06T19:03:21.550Z,99783.34
2019-03-06T19:05:47.663Z,99787.91
2019-03-06T19:08:13.721Z,99786.03
2019-03-06T19:10:39.780Z,99790.19
2019-03-06T19:13:05.905Z,99783.03
2019-03-06T19:15:34.695Z,99782.11
2019-03-06T19:18:00.915Z,99791.81
2019-03-06T19:20:27.101Z,99784.38
2019-03-06T19:22:53.439Z,99778.44
2019-03-06T19:25:19.737Z,99776.70
2019-03-06T19:27:46.029Z,99779.29
2019-03-06T19:30:17.045Z,99789.13
2019-03-06T19:32:43.109Z,99791.44
2019-03-06T19:35:09.279Z,99800.14
2019-03-06T19:37:35.171Z,99798.88
2019-03-06T19:40:01.325Z,99796.41
2019-03-06T19:42:27.289Z,99798.56
2019-03-06T19:44:54.112Z,99809.44
2019-03-06T19:47:20.358Z,99808.17
2019-03-06T19:49:46.509Z,99812.80
2019-03-06T19:52:12.777Z,99809.31
2019-03-06T19:54:38.626Z,99811.05
2019-03-06T19:57:05.020Z,99815.45
2019-03-06T19:59:30.916Z,99810.80
2019-03-06T20:01:56.978Z,99798.43
2019-03-06T20:04:23.190Z,99795.70
2019-03-06T20:06:49.420Z,99800.36
2019-03-06T20:09:21.411Z,99794.41
2019-03-06T20:11:47.555Z,99787.98
2019-03-06T20:14:13.509Z,99776.22
2019-03-06T20:16:39.443Z,99777.77
2019-03-06T20:19:05.567Z,99781.09
2019-03-06T20:21:31.554Z,99767.23
2019-03-06T20:23:57.460Z,99766.28
2019-03-06T20:26:23.726Z,99754.86
2019-03-06T20:28:50.065Z,99751.95
2019-03-06T20:31:16.279Z,99750.22
2019-03-06T20:33:42.408Z,99753.59
2019-03-06T20:36:08.751Z,99768.38
2019-03-06T20:38:35.109Z,99768.18
2019-03-06T20:41:01.374Z,99761.00
2019-03-06T20:43:27.935Z,99766.31
2019-03-06T20:45:54.585Z,99758.66
2019-03-06T20:48:21.234Z,99752.94
2019-03-06T20:50:48.005Z,99764.26
2019-03-06T20:53:14.746Z,99779.11
2019-03-06T20:55:41.461Z,99773.14
2019-03-06T20:58:08.469Z,99768.62
2019-03-06T21:00:35.469Z,99764.64
2019-03-06T21:03:02.553Z,99758.88
2019-03-06T21:05:29.261Z,99761.34
2019-03-06T21:07:56.378Z,99764.66
2019-03-06T21:10:23.363Z,99773.56
2019-03-06T21:12:50.487Z,99771.44
2019-03-06T21:15:18.472Z,99779.73
2019-03-06T21:17:45.345Z,99783.33
2019-03-06T21:20:13.545Z,99787.81
2019-03-06T21:22:40.257Z,99783.33
2019-03-06T21:25:09.449Z,99788.49
2019-03-06T21:27:36.121Z,99788.43
2019-03-06T21:30:05.520Z,99789.68
2019-03-06T21:32:31.845Z,99792.08
2019-03-06T21:34:58.129Z,99788.91
2019-03-06T21:37:24.695Z,99806.29
2019-03-06T21:39:51.396Z,99794.55
2019-03-06T21:42:17.648Z,99801.25
2019-03-06T21:44:43.833Z,99803.91
2019-03-06T21:47:09.981Z,99801.09
2019-03-06T21:49:36.080Z,99806.14
2019-03-06T21:52:02.758Z,99806.20
2019-03-06T21:54:28.669Z,99810.75
2019-03-06T21:56:54.915Z,99812.73
2019-03-06T21:59:22.303Z,99775.20
2019-03-06T22:01:48.387Z,99812.84
2019-03-06T22:04:14.369Z,99821.16
2019-03-06T22:06:40.238Z,99822.23
2019-03-06T22:09:10.659Z,99815.91
2019-03-06T22:11:36.494Z,99796.70
2019-03-06T22:14:02.657Z,99792.75
2019-03-06T22:16:28.653Z,99799.86
2019-03-06T22:18:54.706Z,99789.97
2019-03-06T22:21:20.791Z,99787.31
2019-03-06T22:23:46.611Z,99781.80
2019-03-06T22:26:12.844Z,99779.00
2019-03-06T22:28:39.018Z,99779.80
2019-03-06T22:31:04.984Z,99786.11
2019-03-06T22:33:30.989Z,99782.92
2019-03-06T22:35:58.813Z,99782.98
2019-03-06T22:38:24.805Z,99782.31
2019-03-06T22:40:50.834Z,99778.47
2019-03-06T22:43:16.846Z,99772.70
2019-03-06T22:45:42.818Z,99772.61
2019-03-06T22:48:08.767Z,99768.37
2019-03-06T22:50:34.734Z,99775.45
2019-03-06T22:53:00.669Z,99761.73
2019-03-06T22:55:29.830Z,99761.52
2019-03-06T22:57:55.885Z,99758.48
2019-03-06T23:00:32.503Z,99754.55
2019-03-06T23:02:58.758Z,99749.66
2019-03-06T23:05:26.763Z,99743.94
2019-03-06T23:07:52.963Z,99746.45
2019-03-06T23:10:19.149Z,99734.66
2019-03-06T23:12:45.291Z,99747.87
2019-03-06T23:15:11.247Z,99741.61
2019-03-06T23:17:37.109Z,99754.63
2019-03-06T23:20:05.335Z,99743.74
2019-03-06T23:22:31.511Z,99737.78
2019-03-06T23:24:57.359Z,99725.50
2019-03-06T23:27:23.408Z,99728.95
2019-03-06T23:29:49.500Z,99729.75
2019-03-06T23:32:15.456Z,99731.61
2019-03-06T23:34:41.283Z,99721.97
2019-03-06T23:37:07.545Z,99728.22
2019-03-06T23:39:33.498Z,99722.30
2019-03-06T23:41:59.377Z,99722.78
2019-03-06T23:44:25.315Z,99724.95
2019-03-06T23:46:51.274Z,99731.80
2019-03-06T23:49:17.284Z,99723.30
2019-03-06T23:51:45.159Z,99719.97
2019-03-06T23:54:10.989Z,99718.17
2019-03-06T23:56:37.127Z,99715.31
2019-03-06T23:59:03.257Z,99706.97
